메인 페이지
METAR-TAF:

METAR-TAF

공항 :

트리부반 국제공항

카트만두, 네팔

위도: 27-42N, 경도: 085-22E, 고도: 1337m

현재 날씨관측

예보는 30분 전, 06:20시(UTC)에 발표되었습니다.
서북서5kt
온도 29°C
습도 48%
기압 1011 hPa
시정: 7000m
고도 2000ft 상공 구름 조금

METAR: VNKT 250620Z 30005KT 7000 FEW020 29/17 Q1011 NOSIG

시각: 12:35 (06:50 UTC)

예보

예보는 1 시간 50분 전, 05:00시(UTC)에 발표되었습니다.
예보 대상 시간: 25일 06시부터 26일 06시까지 (UTC)
4kt
시정: 7000m
고도 1500ft 상공 구름 조금
고도 3000ft 상공 구름 보통
전환 중
25일 07시부터 25일 08시까지 (UTC)
서남서8kt
시정: 8000m
고도 2000ft 상공 구름 조금
고도 10000ft 상공 구름 보통
확률 30%
25일 08시부터 25일 14시까지 (UTC)
12kt
시정: 5000m
고도 2500ft 상공 구름 조금, 적란운.
고도 3000ft 상공 구름 보통
고도 10000ft 상공 구름 많음
뇌우, 약한비
전환 중
25일 14시부터 25일 15시까지 (UTC)
남남동4kt
시정: 6000m
고도 1500ft 상공 구름 조금
전환 중
26일 00시부터 26일 02시까지 (UTC)
여러 방향의 바람 2kt
시정: 4000m
고도 1000ft 상공 구름 조금
고도 10000ft 상공 구름 보통
박무
전환 중
26일 04시부터 26일 05시까지 (UTC)
남남동4kt
시정: 6000m
고도 1500ft 상공 구름 조금

TAF: VNKT 250500Z 2506/2606 17004KT 7000 FEW015 SCT030 BECMG 2507/2508 24008KT 8000 FEW020 SCT100 PROB30 2508/2514 28012KT 5000 -TSRA FEW025CB SCT030 BKN100 BECMG 2514/2515 16004KT 6000 FEW015 BECMG 2600/2602 VRB02KT 4000 BR FEW010 SCT100 BECMG 2604/2605 16004KT 6000 FEW015

4,000개 이상의 공항 관측 자료 및 예보 (METAR 및 TAF 보고).

지도상에서 검색 가능한 기상관측소가 노란 점과 빨간 점으로 표시되어 있습니다.

기상관측소 명을 보려면 표시 위로 마우스를 이동하세요.

날씨 관측과 예보를 보려면 클릭하세요.

지도 변경 : 확대하려면 엑스 표시가 있는 녹색 버튼, 축소하려면 빼기 표시가 있는 녹색 버튼, 다음 페이지의 지도를 보려면 녹색 화살표를 클릭하세요.


METAR-TAF: